createdAt,value
2023-07-29T00:00:14.354Z,0.30
2023-07-29T00:02:41.947Z,0.30
2023-07-29T00:05:09.336Z,0.30
2023-07-29T00:07:36.625Z,0.40
2023-07-29T00:10:04.311Z,0.40
2023-07-29T00:12:31.538Z,0.40
2023-07-29T00:14:58.736Z,0.40
2023-07-29T00:17:25.977Z,0.40
2023-07-29T00:19:53.246Z,0.40
2023-07-29T00:22:20.512Z,0.35
2023-07-29T00:24:55.798Z,0.30
2023-07-29T00:27:23.193Z,0.25
2023-07-29T00:29:50.464Z,0.30
2023-07-29T00:32:17.710Z,0.40
2023-07-29T00:34:45.065Z,0.40
2023-07-29T00:37:12.572Z,0.40
2023-07-29T00:39:39.784Z,0.50
2023-07-29T00:42:07.261Z,0.30
2023-07-29T00:44:34.492Z,0.30
2023-07-29T00:47:03.740Z,0.32
2023-07-29T00:49:30.971Z,0.50
2023-07-29T00:51:58.200Z,0.35
2023-07-29T00:54:25.518Z,0.43
2023-07-29T00:56:52.864Z,0.40
2023-07-29T00:59:20.079Z,0.30
2023-07-29T01:01:47.530Z,0.40
2023-07-29T01:04:14.783Z,0.43
2023-07-29T01:06:52.151Z,0.50
2023-07-29T01:09:32.423Z,0.40
2023-07-29T01:12:13.806Z,0.47
2023-07-29T01:14:44.851Z,0.30
2023-07-29T01:17:17.128Z,0.35
2023-07-29T01:20:02.484Z,0.45
2023-07-29T01:22:30.717Z,0.30
2023-07-29T01:24:58.957Z,0.40
2023-07-29T01:27:26.457Z,0.37
2023-07-29T01:29:54.440Z,0.43
2023-07-29T01:32:42.389Z,0.32
2023-07-29T01:35:33.231Z,0.30
2023-07-29T01:38:14.161Z,0.45
2023-07-29T01:40:41.816Z,0.30
2023-07-29T01:43:09.544Z,0.43
2023-07-29T01:45:39.221Z,0.32
2023-07-29T01:48:07.122Z,0.30
2023-07-29T01:50:34.981Z,0.43
2023-07-29T01:53:02.452Z,0.50
2023-07-29T01:55:29.834Z,0.30
2023-07-29T01:57:57.058Z,0.22
2023-07-29T02:00:24.266Z,0.30
2023-07-29T02:02:51.530Z,0.40
2023-07-29T02:05:18.782Z,0.43
2023-07-29T02:07:46.020Z,0.40
2023-07-29T02:10:13.288Z,0.35
2023-07-29T02:12:40.498Z,0.40
2023-07-29T02:15:08.297Z,0.40
2023-07-29T02:17:35.854Z,0.40
2023-07-29T02:20:04.682Z,0.50
2023-07-29T02:22:31.904Z,0.40
2023-07-29T02:24:59.130Z,0.40
2023-07-29T02:27:28.149Z,0.40
2023-07-29T02:29:55.627Z,0.40
2023-07-29T02:32:23.187Z,0.40
2023-07-29T02:34:50.753Z,0.40
2023-07-29T02:37:18.293Z,0.30
2023-07-29T02:39:45.716Z,0.20
2023-07-29T02:42:12.944Z,0.45
2023-07-29T02:44:41.176Z,0.40
2023-07-29T02:47:08.377Z,0.28
2023-07-29T02:49:35.622Z,0.40
2023-07-29T02:52:02.826Z,0.32
2023-07-29T02:54:30.103Z,0.40
2023-07-29T02:56:57.294Z,0.38
2023-07-29T02:59:24.525Z,0.40
2023-07-29T03:01:51.711Z,0.35
2023-07-29T03:04:19.145Z,0.30
2023-07-29T03:06:46.388Z,0.30
2023-07-29T03:09:13.596Z,0.22
2023-07-29T03:11:41.126Z,0.60
2023-07-29T03:14:08.374Z,0.43
2023-07-29T03:16:35.933Z,0.43
2023-07-29T03:19:03.674Z,0.30
2023-07-29T03:21:30.927Z,0.30
2023-07-29T03:23:58.434Z,0.40
2023-07-29T03:26:26.402Z,0.50
2023-07-29T03:28:53.622Z,0.50
2023-07-29T03:31:20.882Z,0.40
2023-07-29T03:33:48.764Z,0.38
2023-07-29T03:36:16.664Z,0.45
2023-07-29T03:38:45.850Z,0.32
2023-07-29T03:41:13.078Z,0.50
2023-07-29T03:43:40.321Z,0.38
2023-07-29T03:46:10.762Z,0.38
2023-07-29T03:48:39.403Z,0.40
2023-07-29T03:51:06.724Z,0.30
2023-07-29T03:53:33.947Z,0.32
2023-07-29T03:56:01.224Z,0.30
2023-07-29T03:58:28.443Z,0.30
2023-07-29T04:00:55.702Z,0.40
2023-07-29T04:03:22.941Z,0.50
2023-07-29T04:05:50.216Z,0.40
2023-07-29T04:08:17.474Z,0.30
2023-07-29T04:10:44.749Z,0.35
2023-07-29T04:13:12.072Z,0.40
2023-07-29T04:15:39.300Z,0.40
2023-07-29T04:18:06.563Z,0.30
2023-07-29T04:20:34.846Z,0.43
2023-07-29T04:23:02.087Z,0.30
2023-07-29T04:25:29.607Z,0.43
2023-07-29T04:27:58.630Z,0.50
2023-07-29T04:30:26.045Z,0.22
2023-07-29T04:32:53.333Z,0.30
2023-07-29T04:35:20.583Z,0.40
2023-07-29T04:37:49.175Z,0.40
2023-07-29T04:40:16.560Z,0.40
2023-07-29T04:42:43.845Z,0.40
2023-07-29T04:45:11.222Z,0.40
2023-07-29T04:47:38.746Z,0.35
2023-07-29T04:50:07.275Z,0.35
2023-07-29T04:52:34.513Z,0.40
2023-07-29T04:55:01.768Z,0.30
2023-07-29T04:57:28.962Z,0.40
2023-07-29T04:59:56.162Z,0.38
2023-07-29T05:02:23.434Z,0.43
2023-07-29T05:04:50.682Z,0.40
2023-07-29T05:07:17.919Z,0.32
2023-07-29T05:09:45.201Z,0.60
2023-07-29T05:12:12.400Z,0.50
2023-07-29T05:14:39.591Z,0.50
2023-07-29T05:17:07.099Z,0.47
2023-07-29T05:19:34.302Z,0.47
2023-07-29T05:22:01.570Z,0.30
2023-07-29T05:24:29.014Z,0.30
2023-07-29T05:26:56.204Z,0.47
2023-07-29T05:29:23.441Z,0.40
2023-07-29T05:31:50.688Z,0.40
2023-07-29T05:34:17.910Z,0.40
2023-07-29T05:36:45.120Z,0.50
2023-07-29T05:39:13.255Z,0.40
2023-07-29T05:41:40.488Z,0.37
2023-07-29T05:44:10.579Z,0.40
2023-07-29T05:46:38.468Z,0.30
2023-07-29T05:49:05.913Z,0.40
2023-07-29T05:51:33.146Z,0.40
2023-07-29T05:54:00.384Z,0.30
2023-07-29T05:56:27.629Z,0.38
2023-07-29T05:58:54.899Z,0.40
2023-07-29T06:01:22.703Z,0.40
2023-07-29T06:03:50.577Z,0.30
2023-07-29T06:06:17.872Z,0.40
2023-07-29T06:08:45.457Z,0.30
2023-07-29T06:11:12.690Z,0.30
2023-07-29T06:13:39.891Z,0.40
2023-07-29T06:16:07.100Z,0.30
2023-07-29T06:18:34.357Z,0.50
2023-07-29T06:21:01.572Z,0.40
2023-07-29T06:23:28.796Z,0.30
2023-07-29T06:25:56.011Z,0.40
2023-07-29T06:28:23.285Z,0.30
2023-07-29T06:30:50.626Z,0.30
2023-07-29T06:33:17.910Z,0.40
2023-07-29T06:35:45.148Z,0.40
2023-07-29T06:38:12.348Z,0.30
2023-07-29T06:40:39.557Z,0.50
2023-07-29T06:43:06.793Z,0.30
2023-07-29T06:45:34.011Z,0.40
2023-07-29T06:48:01.296Z,0.40
2023-07-29T06:50:28.532Z,0.30
2023-07-29T06:52:55.726Z,0.40
2023-07-29T06:55:22.939Z,0.40
2023-07-29T06:57:50.256Z,0.35
2023-07-29T07:00:17.529Z,0.30
2023-07-29T07:02:44.905Z,0.30
2023-07-29T07:05:12.216Z,0.30
2023-07-29T07:07:39.446Z,0.40
2023-07-29T07:10:07.104Z,0.30
2023-07-29T07:12:34.372Z,0.30
2023-07-29T07:15:02.363Z,0.32
2023-07-29T07:17:29.624Z,0.47
2023-07-29T07:19:56.941Z,0.28
2023-07-29T07:22:25.122Z,0.40
2023-07-29T07:24:52.406Z,0.40
2023-07-29T07:27:19.604Z,0.40
2023-07-29T07:29:46.810Z,0.40
2023-07-29T07:32:14.035Z,0.30
2023-07-29T07:34:41.229Z,0.43
2023-07-29T07:37:08.437Z,0.30
2023-07-29T07:39:35.679Z,0.30
2023-07-29T07:42:03.048Z,0.20
2023-07-29T07:44:30.302Z,0.43
2023-07-29T07:46:57.508Z,0.30
2023-07-29T07:49:24.732Z,0.30
2023-07-29T07:51:52.131Z,0.30
2023-07-29T07:54:19.437Z,0.40
2023-07-29T07:56:46.672Z,0.28
2023-07-29T07:59:16.048Z,0.30
2023-07-29T08:01:44.986Z,0.40
2023-07-29T08:04:12.333Z,0.38
2023-07-29T08:06:39.823Z,0.30
2023-07-29T08:09:07.358Z,0.52
2023-07-29T08:11:34.590Z,0.35
2023-07-29T08:14:01.900Z,0.25
2023-07-29T08:16:29.350Z,0.40
2023-07-29T08:18:56.576Z,0.20
2023-07-29T08:21:23.773Z,0.40
2023-07-29T08:23:50.982Z,0.25
2023-07-29T08:26:18.344Z,0.30
2023-07-29T08:28:45.646Z,0.30
2023-07-29T08:31:12.988Z,0.30
2023-07-29T08:33:40.237Z,0.50
2023-07-29T08:36:07.627Z,0.40
2023-07-29T08:38:34.901Z,0.40
2023-07-29T08:41:23.343Z,0.25
2023-07-29T08:44:13.349Z,0.30
2023-07-29T08:46:41.788Z,0.22
2023-07-29T08:49:09.486Z,0.28
2023-07-29T08:51:37.023Z,0.30
2023-07-29T08:54:04.282Z,0.30
2023-07-29T08:56:31.915Z,0.32
2023-07-29T08:59:01.500Z,0.20
2023-07-29T09:01:28.983Z,0.30
2023-07-29T09:03:56.246Z,0.30
2023-07-29T09:06:24.152Z,0.20
2023-07-29T09:08:52.404Z,0.25
2023-07-29T09:11:20.228Z,0.30
2023-07-29T09:13:47.510Z,0.20
2023-07-29T09:16:15.409Z,0.32
2023-07-29T09:18:42.627Z,0.20
2023-07-29T09:21:09.843Z,0.40
2023-07-29T09:23:44.779Z,0.30
2023-07-29T09:26:12.594Z,0.30
2023-07-29T09:28:40.979Z,0.30
2023-07-29T09:31:08.312Z,0.30
2023-07-29T09:33:39.265Z,0.20
2023-07-29T09:36:10.874Z,0.20
2023-07-29T09:38:39.809Z,0.32
2023-07-29T09:43:35.532Z,0.22
2023-07-29T09:46:08.270Z,0.20
2023-07-29T09:48:37.418Z,0.30
2023-07-29T09:51:14.781Z,0.20
2023-07-29T09:53:49.072Z,0.20
2023-07-29T09:56:17.249Z,0.28
2023-07-29T09:58:46.641Z,0.20
2023-07-29T10:01:15.086Z,0.20
2023-07-29T10:03:42.480Z,0.30
2023-07-29T10:06:09.842Z,0.20
2023-07-29T10:08:39.104Z,0.30
2023-07-29T10:11:07.949Z,0.30
2023-07-29T10:13:35.872Z,0.30
2023-07-29T10:16:03.732Z,0.30
2023-07-29T10:18:32.192Z,0.20
2023-07-29T10:21:00.807Z,0.32
2023-07-29T10:23:29.235Z,0.30
2023-07-29T10:26:07.076Z,0.28
2023-07-29T10:28:35.890Z,0.20
2023-07-29T10:33:32.391Z,0.20
2023-07-29T10:35:59.984Z,0.22
2023-07-29T10:38:27.323Z,0.20
2023-07-29T10:41:02.821Z,0.20
2023-07-29T10:43:39.564Z,0.35
2023-07-29T10:46:24.070Z,0.22
2023-07-29T10:48:56.158Z,0.30
2023-07-29T10:51:36.512Z,0.20
2023-07-29T10:54:05.501Z,0.40
2023-07-29T10:59:17.737Z,0.30
2023-07-29T11:01:52.848Z,0.40
2023-07-29T11:04:24.959Z,0.30
2023-07-29T11:07:16.219Z,0.20
2023-07-29T11:10:01.150Z,0.30
2023-07-29T11:12:46.394Z,0.25
2023-07-29T11:15:28.170Z,0.20
2023-07-29T11:17:56.912Z,0.30
2023-07-29T11:20:26.424Z,0.32
2023-07-29T11:22:55.892Z,0.25
2023-07-29T11:25:24.464Z,0.22
2023-07-29T11:27:54.215Z,0.20
2023-07-29T11:30:21.624Z,0.30
2023-07-29T11:32:48.915Z,0.30
2023-07-29T11:35:18.043Z,0.22
2023-07-29T11:37:50.473Z,0.40
2023-07-29T11:40:19.629Z,0.30
2023-07-29T11:42:54.463Z,0.20
2023-07-29T11:45:24.214Z,0.20
2023-07-29T11:47:53.206Z,0.30
2023-07-29T11:50:20.454Z,0.28
2023-07-29T11:52:48.343Z,0.30
2023-07-29T11:55:16.627Z,0.30
2023-07-29T11:57:44.497Z,0.25
2023-07-29T12:00:13.168Z,0.20
2023-07-29T12:02:42.268Z,0.30
2023-07-29T12:05:10.625Z,0.30
2023-07-29T12:07:41.026Z,0.10
2023-07-29T12:10:08.474Z,0.25
2023-07-29T12:12:44.126Z,0.28
2023-07-29T12:15:11.428Z,0.20
2023-07-29T12:17:42.624Z,0.30
2023-07-29T12:20:11.724Z,0.20
2023-07-29T12:22:39.088Z,0.20
2023-07-29T12:25:07.391Z,0.20
2023-07-29T12:27:34.630Z,0.20
2023-07-29T12:30:05.026Z,0.25
2023-07-29T12:32:32.477Z,0.20
2023-07-29T12:34:59.749Z,0.38
2023-07-29T12:37:34.421Z,0.20
2023-07-29T12:40:01.763Z,0.20
2023-07-29T12:42:28.972Z,0.28
2023-07-29T12:44:56.221Z,0.20
2023-07-29T12:47:23.628Z,0.25
2023-07-29T12:49:50.962Z,0.30
2023-07-29T12:52:18.195Z,0.30
2023-07-29T12:54:45.592Z,0.22
2023-07-29T12:57:12.991Z,0.20
2023-07-29T12:59:40.229Z,0.30
2023-07-29T13:02:08.213Z,0.30
2023-07-29T13:04:35.639Z,0.20
2023-07-29T13:07:02.849Z,0.30
2023-07-29T13:09:30.080Z,0.30
2023-07-29T13:11:57.310Z,0.30
2023-07-29T13:14:24.569Z,0.38
2023-07-29T13:16:51.904Z,0.35
2023-07-29T13:19:20.460Z,0.30
2023-07-29T13:21:47.667Z,0.30
2023-07-29T13:24:15.838Z,0.20
2023-07-29T13:26:43.467Z,0.30
2023-07-29T13:29:10.679Z,0.28
2023-07-29T13:31:37.956Z,0.22
2023-07-29T13:34:05.179Z,0.30
2023-07-29T13:36:32.416Z,0.40
2023-07-29T13:38:59.672Z,0.20
2023-07-29T13:41:26.932Z,0.20
2023-07-29T13:43:54.157Z,0.30
2023-07-29T13:46:22.314Z,0.20
2023-07-29T13:48:50.143Z,0.30
2023-07-29T13:51:17.369Z,0.20
2023-07-29T13:53:44.756Z,0.20
2023-07-29T13:56:11.979Z,0.25
2023-07-29T13:58:39.189Z,0.28
2023-07-29T14:01:06.450Z,0.22
2023-07-29T14:03:33.709Z,0.30
2023-07-29T14:06:00.998Z,0.40
2023-07-29T14:08:28.260Z,0.30
2023-07-29T14:10:55.454Z,0.30
2023-07-29T14:13:22.685Z,0.20
2023-07-29T14:15:50.235Z,0.30
2023-07-29T14:18:17.495Z,0.30
2023-07-29T14:20:44.910Z,0.30
2023-07-29T14:23:12.718Z,0.30
2023-07-29T14:25:40.862Z,0.35
2023-07-29T14:28:08.142Z,0.30
2023-07-29T14:30:36.656Z,0.30
2023-07-29T14:33:03.984Z,0.20
2023-07-29T14:35:31.259Z,0.30
2023-07-29T14:37:58.475Z,0.40
2023-07-29T14:40:25.688Z,0.20
2023-07-29T14:42:52.914Z,0.30
2023-07-29T14:45:20.272Z,0.30
2023-07-29T14:47:47.822Z,0.20
2023-07-29T14:50:15.169Z,0.30
2023-07-29T14:52:42.391Z,0.20
2023-07-29T14:55:10.246Z,0.30
2023-07-29T14:57:37.619Z,0.30
2023-07-29T15:00:05.388Z,0.30
2023-07-29T15:02:32.669Z,0.20
2023-07-29T15:05:00.253Z,0.30
2023-07-29T15:07:27.493Z,0.30
2023-07-29T15:09:54.946Z,0.30
2023-07-29T15:12:22.231Z,0.32
2023-07-29T15:14:49.471Z,0.30
2023-07-29T15:17:16.735Z,0.28
2023-07-29T15:19:43.985Z,0.25
2023-07-29T15:22:11.322Z,0.20
2023-07-29T15:24:41.207Z,0.50
2023-07-29T15:27:08.476Z,0.25
2023-07-29T15:29:35.750Z,0.30
2023-07-29T15:32:03.196Z,0.30
2023-07-29T15:34:32.770Z,0.50
2023-07-29T15:37:00.158Z,0.30
2023-07-29T15:39:27.535Z,0.40
2023-07-29T15:41:55.239Z,0.30
2023-07-29T15:44:22.441Z,0.40
2023-07-29T15:46:52.832Z,0.20
2023-07-29T15:49:20.213Z,0.30
2023-07-29T15:51:47.434Z,0.20
2023-07-29T15:54:14.735Z,0.20
2023-07-29T15:56:42.403Z,0.40
2023-07-29T15:59:09.790Z,0.52
2023-07-29T16:01:37.252Z,0.77
2023-07-29T16:04:04.666Z,0.70
2023-07-29T16:06:32.152Z,0.80
2023-07-29T16:09:00.788Z,1.02
2023-07-29T16:11:29.555Z,0.85
2023-07-29T16:13:56.775Z,0.60
2023-07-29T16:16:24.021Z,0.77
2023-07-29T16:18:51.288Z,0.70
2023-07-29T16:21:18.506Z,0.80
2023-07-29T16:23:47.351Z,0.77
2023-07-29T16:28:44.675Z,0.70
2023-07-29T16:31:11.907Z,0.60
2023-07-29T16:33:39.123Z,0.75
2023-07-29T16:36:06.554Z,0.85
2023-07-29T16:38:33.807Z,1.00
2023-07-29T16:41:12.594Z,0.70
2023-07-29T16:43:47.586Z,0.60
2023-07-29T16:46:14.968Z,0.70
2023-07-29T16:48:42.520Z,0.70
2023-07-29T16:51:11.567Z,0.70
2023-07-29T16:53:38.834Z,1.23
2023-07-29T16:56:06.106Z,0.88
2023-07-29T16:58:33.555Z,0.60
2023-07-29T17:01:00.818Z,1.05
2023-07-29T17:03:28.164Z,1.10
2023-07-29T17:05:58.918Z,1.10
2023-07-29T17:08:26.246Z,1.50
2023-07-29T17:10:53.733Z,0.77
2023-07-29T17:13:20.981Z,0.90
2023-07-29T17:15:48.839Z,0.95
2023-07-29T17:18:16.216Z,0.85
2023-07-29T17:20:43.517Z,1.60
2023-07-29T17:23:10.756Z,1.50
2023-07-29T17:25:37.991Z,1.42
2023-07-29T17:28:05.956Z,1.05
2023-07-29T17:30:36.212Z,1.35
2023-07-29T17:33:04.404Z,1.23
2023-07-29T17:35:32.170Z,1.25
2023-07-29T17:37:59.405Z,1.27
2023-07-29T17:40:26.709Z,1.08
2023-07-29T17:42:54.009Z,1.48
2023-07-29T17:45:21.523Z,1.30
2023-07-29T17:47:48.782Z,1.35
2023-07-29T17:50:16.098Z,1.50
2023-07-29T17:52:43.331Z,1.90
2023-07-29T17:55:10.555Z,1.73
2023-07-29T17:57:37.752Z,1.35
2023-07-29T18:00:07.236Z,1.67
2023-07-29T18:02:34.610Z,1.80
2023-07-29T18:05:02.020Z,1.48
2023-07-29T18:07:29.520Z,1.70
2023-07-29T18:09:56.795Z,1.50
2023-07-29T18:12:24.043Z,1.65
2023-07-29T18:14:51.287Z,1.60
2023-07-29T18:17:18.538Z,1.63
2023-07-29T18:19:45.879Z,1.63
2023-07-29T18:22:13.929Z,1.67
2023-07-29T18:24:41.421Z,1.88
2023-07-29T18:27:10.501Z,2.00
2023-07-29T18:29:38.004Z,2.05
2023-07-29T18:32:05.498Z,1.90
2023-07-29T18:34:33.428Z,1.98
2023-07-29T18:37:00.981Z,2.22
2023-07-29T18:39:28.190Z,2.47
2023-07-29T18:41:55.492Z,2.20
2023-07-29T18:44:22.948Z,2.30
2023-07-29T18:46:53.209Z,2.42
2023-07-29T18:49:21.874Z,2.42
2023-07-29T18:51:49.381Z,2.45
2023-07-29T18:54:16.806Z,2.15
2023-07-29T18:56:44.234Z,2.17
2023-07-29T18:59:12.078Z,2.72
2023-07-29T19:01:39.563Z,2.90
2023-07-29T19:04:07.084Z,2.97
2023-07-29T19:06:34.389Z,2.72
2023-07-29T19:09:01.919Z,2.75
2023-07-29T19:11:29.352Z,2.88
2023-07-29T19:13:56.891Z,2.67
2023-07-29T19:16:24.929Z,3.13
2023-07-29T19:18:52.226Z,2.30
2023-07-29T19:21:21.028Z,2.70
2023-07-29T19:23:48.880Z,2.53
2023-07-29T19:26:22.632Z,2.50
2023-07-29T19:28:51.670Z,2.58
2023-07-29T19:31:19.124Z,2.70
2023-07-29T19:33:46.478Z,2.80
2023-07-29T19:36:14.120Z,3.05
2023-07-29T19:38:41.504Z,2.30
2023-07-29T19:41:09.045Z,3.05
2023-07-29T19:43:36.417Z,2.40
2023-07-29T19:48:35.758Z,3.25
2023-07-29T19:51:03.020Z,3.53
2023-07-29T19:53:31.374Z,3.47
2023-07-29T19:55:58.960Z,3.33
2023-07-29T19:58:26.208Z,3.58
2023-07-29T20:00:53.832Z,3.22
2023-07-29T20:03:21.208Z,3.42
2023-07-29T20:05:48.859Z,3.50
2023-07-29T20:08:16.237Z,3.65
2023-07-29T20:10:44.529Z,4.72
2023-07-29T20:13:11.775Z,4.55
2023-07-29T20:15:38.991Z,4.80
2023-07-29T20:18:06.296Z,4.40
2023-07-29T20:20:33.638Z,4.93
2023-07-29T20:23:00.847Z,4.55
2023-07-29T20:25:28.071Z,4.25
2023-07-29T20:27:55.656Z,3.97
2023-07-29T20:30:23.063Z,3.92
2023-07-29T20:32:50.635Z,4.07
2023-07-29T20:35:17.906Z,5.55
2023-07-29T20:37:45.205Z,5.35
2023-07-29T20:40:13.419Z,4.63
2023-07-29T20:42:40.720Z,4.22
2023-07-29T20:45:08.396Z,4.40
2023-07-29T20:47:37.216Z,5.05
2023-07-29T20:50:04.853Z,4.05
2023-07-29T20:52:32.057Z,3.70
2023-07-29T20:54:59.300Z,3.80
2023-07-29T20:57:26.555Z,4.20
2023-07-29T20:59:53.917Z,4.13
2023-07-29T21:02:21.308Z,3.90
2023-07-29T21:04:48.553Z,3.42
2023-07-29T21:07:15.874Z,3.60
2023-07-29T21:09:43.094Z,3.75
2023-07-29T21:12:10.541Z,3.47
2023-07-29T21:14:38.425Z,3.30
2023-07-29T21:17:06.103Z,3.28
2023-07-29T21:19:34.324Z,3.60
2023-07-29T21:22:01.749Z,3.20
2023-07-29T21:24:29.074Z,3.45
2023-07-29T21:26:56.282Z,3.17
2023-07-29T21:29:23.699Z,3.40
2023-07-29T21:31:50.924Z,3.35
2023-07-29T21:34:18.142Z,3.03
2023-07-29T21:36:45.436Z,3.40
2023-07-29T21:39:12.935Z,3.53
2023-07-29T21:41:40.417Z,3.70
2023-07-29T21:44:07.757Z,3.60
2023-07-29T21:46:35.024Z,3.85
2023-07-29T21:49:02.277Z,2.67
2023-07-29T21:51:29.504Z,3.30
2023-07-29T21:53:56.701Z,3.22
2023-07-29T21:56:24.307Z,2.97
2023-07-29T21:58:51.640Z,3.00
2023-07-29T22:01:19.523Z,3.03
2023-07-29T22:03:46.760Z,2.90
2023-07-29T22:06:14.157Z,3.30
2023-07-29T22:08:41.493Z,2.42
2023-07-29T22:11:13.048Z,2.85
2023-07-29T22:13:40.439Z,3.00
2023-07-29T22:16:08.110Z,2.92
2023-07-29T22:18:35.356Z,2.70
2023-07-29T22:21:02.954Z,2.92
2023-07-29T22:23:30.274Z,2.72
2023-07-29T22:26:05.230Z,2.70
2023-07-29T22:28:35.747Z,2.83
2023-07-29T22:31:06.841Z,2.83
2023-07-29T22:33:34.690Z,2.67
2023-07-29T22:36:02.664Z,2.92
2023-07-29T22:38:30.247Z,2.25
2023-07-29T22:40:58.291Z,2.35
2023-07-29T22:43:25.673Z,2.53
2023-07-29T22:45:54.525Z,2.70
2023-07-29T22:48:22.190Z,2.60
2023-07-29T22:50:49.768Z,2.45
2023-07-29T22:53:17.313Z,2.60
2023-07-29T22:55:44.977Z,2.50
2023-07-29T22:58:12.396Z,2.50
2023-07-29T23:00:40.085Z,2.15
2023-07-29T23:03:07.830Z,2.42
2023-07-29T23:05:36.627Z,2.47
2023-07-29T23:08:04.255Z,1.90
2023-07-29T23:10:33.534Z,2.33
2023-07-29T23:13:01.637Z,2.35
2023-07-29T23:15:28.936Z,2.20
2023-07-29T23:17:56.226Z,2.20
2023-07-29T23:20:25.874Z,2.05
2023-07-29T23:22:54.643Z,2.00
2023-07-29T23:25:21.847Z,2.00
2023-07-29T23:27:49.085Z,2.08
2023-07-29T23:30:16.592Z,1.90
2023-07-29T23:32:45.517Z,2.17
2023-07-29T23:37:40.174Z,2.20
2023-07-29T23:40:08.075Z,2.40
2023-07-29T23:42:35.317Z,2.10
2023-07-29T23:45:02.541Z,2.40
2023-07-29T23:47:29.763Z,2.30
2023-07-29T23:49:56.970Z,2.50
2023-07-29T23:52:24.169Z,2.30
2023-07-29T23:54:51.367Z,2.60
2023-07-29T23:57:18.908Z,2.45
2023-07-29T23:59:50.783Z,2.60
